createdAt,value
2023-02-23T00:00:52.037Z,50.97
2023-02-23T00:03:59.323Z,51.16
2023-02-23T00:07:01.502Z,50.45
2023-02-23T00:10:03.800Z,50.57
2023-02-23T00:13:05.783Z,51.20
2023-02-23T00:16:14.111Z,50.63
2023-02-23T00:19:16.160Z,50.52
2023-02-23T00:22:18.622Z,50.78
2023-02-23T00:25:23.097Z,50.47
2023-02-23T00:28:25.534Z,50.38
2023-02-23T00:31:29.654Z,50.20
2023-02-23T00:34:32.166Z,50.26
2023-02-23T00:37:34.243Z,50.79
2023-02-23T00:40:41.040Z,50.51
2023-02-23T00:43:47.660Z,50.60
2023-02-23T00:46:52.632Z,50.67
2023-02-23T00:49:54.943Z,50.54
2023-02-23T00:52:59.793Z,49.96
2023-02-23T00:56:07.949Z,50.48
2023-02-23T00:59:12.305Z,51.33
2023-02-23T01:02:16.634Z,51.41
2023-02-23T01:05:18.620Z,51.22
2023-02-23T01:08:25.297Z,50.92
2023-02-23T01:11:31.170Z,51.23
2023-02-23T01:14:34.242Z,52.17
2023-02-23T01:17:36.289Z,52.11
2023-02-23T01:20:42.527Z,52.74
2023-02-23T01:23:46.237Z,52.23
2023-02-23T01:26:48.370Z,51.65
2023-02-23T01:29:50.511Z,52.65
2023-02-23T01:32:52.506Z,52.73
2023-02-23T01:36:00.963Z,52.61
2023-02-23T01:39:07.962Z,52.82
2023-02-23T01:42:14.093Z,53.93
2023-02-23T01:45:22.647Z,54.02
2023-02-23T01:48:28.908Z,55.03
2023-02-23T01:51:34.904Z,54.78
2023-02-23T01:54:40.348Z,55.43
2023-02-23T01:57:42.775Z,55.88
2023-02-23T02:00:56.939Z,55.51
2023-02-23T02:04:05.667Z,55.40
2023-02-23T02:07:07.949Z,55.62
2023-02-23T02:10:13.432Z,55.92
2023-02-23T02:13:22.022Z,55.78
2023-02-23T02:16:31.465Z,55.63
2023-02-23T02:20:32.325Z,55.32
2023-02-23T02:23:41.981Z,55.73
2023-02-23T02:27:18.117Z,55.27
2023-02-23T02:30:39.893Z,55.58
2023-02-23T02:34:14.466Z,55.59
2023-02-23T02:37:41.870Z,55.87
2023-02-23T02:41:05.364Z,55.87
2023-02-23T02:44:36.395Z,56.59
2023-02-23T02:47:59.165Z,56.26
2023-02-23T02:51:04.341Z,56.39
2023-02-23T02:54:18.302Z,57.05
2023-02-23T02:57:26.450Z,56.62
2023-02-23T03:00:55.922Z,56.53
2023-02-23T03:04:20.916Z,57.35
2023-02-23T03:08:22.995Z,57.27
2023-02-23T03:11:54.564Z,56.55
2023-02-23T03:15:34.766Z,55.75
2023-02-23T03:19:33.214Z,56.11
2023-02-23T03:23:01.246Z,55.77
2023-02-23T03:26:40.432Z,55.83
2023-02-23T03:30:39.354Z,55.43
2023-02-23T03:34:27.778Z,56.38
2023-02-23T03:37:57.786Z,57.41
2023-02-23T03:41:19.455Z,56.97
2023-02-23T03:44:51.540Z,57.40
2023-02-23T03:48:18.423Z,57.69
2023-02-23T03:51:42.415Z,57.74
2023-02-23T03:55:12.161Z,57.21
2023-02-23T03:58:35.385Z,57.86
2023-02-23T04:01:57.633Z,57.64
2023-02-23T04:05:24.337Z,56.52
2023-02-23T04:08:52.869Z,56.19
2023-02-23T04:12:26.783Z,56.19
2023-02-23T04:15:39.189Z,56.32
2023-02-23T04:18:42.731Z,56.08
2023-02-23T04:21:45.423Z,56.15
2023-02-23T04:24:47.890Z,56.69
2023-02-23T04:27:50.880Z,57.48
2023-02-23T04:30:53.087Z,57.57
2023-02-23T04:33:55.183Z,57.38
2023-02-23T04:36:57.237Z,58.14
2023-02-23T04:39:59.384Z,57.69
2023-02-23T04:43:01.449Z,57.09
2023-02-23T04:46:03.535Z,55.25
2023-02-23T04:49:07.998Z,53.61
2023-02-23T04:52:10.305Z,52.06
2023-02-23T04:55:21.695Z,50.77
2023-02-23T04:58:24.021Z,50.46
2023-02-23T05:01:27.291Z,49.82
2023-02-23T05:04:29.926Z,50.02
2023-02-23T05:07:32.202Z,50.10
2023-02-23T05:10:35.671Z,49.58
2023-02-23T05:13:38.737Z,49.82
2023-02-23T05:16:40.826Z,49.75
2023-02-23T05:19:42.771Z,49.92
2023-02-23T05:22:45.278Z,51.25
2023-02-23T05:25:47.714Z,49.71
2023-02-23T05:28:50.271Z,50.84
2023-02-23T05:31:52.475Z,51.13
2023-02-23T05:34:54.796Z,54.35
2023-02-23T05:37:56.815Z,51.41
2023-02-23T05:40:58.825Z,51.82
2023-02-23T05:44:02.834Z,52.85
2023-02-23T05:47:05.820Z,52.77
2023-02-23T05:50:11.588Z,50.75
2023-02-23T05:53:13.819Z,50.35
2023-02-23T05:56:23.512Z,53.46
2023-02-23T05:59:25.550Z,51.66
2023-02-23T06:02:27.557Z,50.87
2023-02-23T06:05:30.113Z,51.90
2023-02-23T06:08:32.625Z,51.22
2023-02-23T06:11:35.694Z,49.56
2023-02-23T06:14:37.733Z,50.34
2023-02-23T06:17:39.785Z,51.17
2023-02-23T06:20:41.735Z,47.11
2023-02-23T06:23:43.802Z,48.38
2023-02-23T06:26:46.497Z,49.13
2023-02-23T06:29:48.518Z,45.80
2023-02-23T06:32:52.482Z,47.04
2023-02-23T06:35:56.608Z,47.45
2023-02-23T06:38:59.586Z,46.30
2023-02-23T06:42:01.599Z,44.96
2023-02-23T06:45:05.076Z,46.70
2023-02-23T06:48:07.951Z,47.81
2023-02-23T06:51:10.197Z,45.75
2023-02-23T06:54:12.112Z,47.66
2023-02-23T06:57:14.433Z,47.94
2023-02-23T07:00:17.912Z,47.42
2023-02-23T07:03:20.061Z,48.36
2023-02-23T07:06:22.063Z,49.77
2023-02-23T07:09:24.280Z,48.19
2023-02-23T07:12:26.593Z,46.01
2023-02-23T07:15:29.221Z,48.12
2023-02-23T07:18:31.301Z,48.85
2023-02-23T07:21:33.818Z,44.54
2023-02-23T07:24:35.919Z,46.51
2023-02-23T07:27:38.345Z,48.45
2023-02-23T07:30:40.911Z,44.69
2023-02-23T07:33:43.364Z,45.67
2023-02-23T07:36:46.668Z,46.71
2023-02-23T07:39:48.767Z,44.14
2023-02-23T07:42:51.334Z,43.60
2023-02-23T07:45:53.862Z,44.12
2023-02-23T07:48:56.091Z,45.13
2023-02-23T07:51:58.669Z,42.62
2023-02-23T07:55:01.914Z,43.98
2023-02-23T07:58:06.280Z,47.42
2023-02-23T08:01:10.057Z,43.17
2023-02-23T08:04:12.400Z,43.98
2023-02-23T08:07:14.489Z,46.63
2023-02-23T08:10:16.646Z,44.41
2023-02-23T08:13:18.940Z,45.10
2023-02-23T08:16:21.597Z,44.89
2023-02-23T08:19:25.146Z,45.69
2023-02-23T08:22:37.883Z,45.82
2023-02-23T08:25:46.594Z,46.93
2023-02-23T08:28:48.559Z,46.59
2023-02-23T08:31:53.908Z,47.40
2023-02-23T08:34:58.260Z,47.50
2023-02-23T08:38:00.918Z,48.20
2023-02-23T08:41:06.072Z,48.52
2023-02-23T08:44:08.583Z,49.19
2023-02-23T08:47:11.913Z,49.58
2023-02-23T08:50:16.921Z,49.38
2023-02-23T08:53:25.744Z,49.32
2023-02-23T08:56:36.420Z,49.75
2023-02-23T08:59:47.891Z,49.21
2023-02-23T09:02:52.419Z,49.89
2023-02-23T09:05:55.258Z,48.93
2023-02-23T09:08:57.597Z,49.19
2023-02-23T09:12:00.617Z,49.12
2023-02-23T09:18:19.300Z,48.92
2023-02-23T09:21:25.586Z,49.31
2023-02-23T09:24:36.524Z,49.29
2023-02-23T09:31:17.271Z,49.22
2023-02-23T09:34:20.209Z,49.29
2023-02-23T09:37:22.379Z,49.48
2023-02-23T09:40:28.336Z,48.52
2023-02-23T09:43:45.230Z,49.32
2023-02-23T09:46:53.095Z,49.40
2023-02-23T09:50:00.417Z,49.28
2023-02-23T09:53:40.774Z,49.30
2023-02-23T09:57:22.521Z,49.64
2023-02-23T10:00:28.081Z,49.71
2023-02-23T10:03:40.338Z,49.48
2023-02-23T10:06:49.690Z,48.92
2023-02-23T10:13:57.596Z,47.88
2023-02-23T10:17:56.701Z,46.34
2023-02-23T10:21:12.345Z,45.87
2023-02-23T10:24:40.910Z,45.32
2023-02-23T10:27:49.956Z,48.17
2023-02-23T10:30:56.943Z,49.38
2023-02-23T10:34:06.157Z,49.46
2023-02-23T10:37:13.058Z,50.05
2023-02-23T10:40:23.256Z,50.37
2023-02-23T10:43:25.811Z,50.15
2023-02-23T10:46:40.740Z,50.14
2023-02-23T10:49:48.516Z,50.11
2023-02-23T10:52:57.005Z,55.29
2023-02-23T10:56:06.935Z,62.65
2023-02-23T10:59:20.751Z,60.08
2023-02-23T11:02:27.573Z,59.53
2023-02-23T11:09:43.335Z,57.09
2023-02-23T11:12:53.659Z,55.41
2023-02-23T11:17:00.558Z,54.95
2023-02-23T11:20:20.527Z,55.03
2023-02-23T11:23:43.663Z,54.87
2023-02-23T11:26:48.782Z,53.73
2023-02-23T11:29:54.253Z,54.06
2023-02-23T11:33:11.100Z,53.52
2023-02-23T11:36:16.679Z,52.22
2023-02-23T11:39:22.978Z,52.82
2023-02-23T11:42:28.567Z,53.08
2023-02-23T11:45:34.624Z,52.64
2023-02-23T11:48:55.020Z,52.33
2023-02-23T11:51:59.595Z,53.16
2023-02-23T11:55:16.007Z,52.96
2023-02-23T11:58:28.137Z,53.55
2023-02-23T12:01:41.839Z,52.76
2023-02-23T12:04:48.162Z,53.33
2023-02-23T12:08:02.806Z,53.72
2023-02-23T12:11:15.277Z,53.36
2023-02-23T12:14:56.084Z,53.82
2023-02-23T12:18:05.513Z,54.21
2023-02-23T12:21:35.037Z,54.19
2023-02-23T12:24:45.541Z,52.92
2023-02-23T12:28:18.089Z,52.88
2023-02-23T12:31:43.261Z,51.63
2023-02-23T12:35:16.186Z,51.52
2023-02-23T12:38:38.535Z,51.74
2023-02-23T12:42:04.414Z,55.13
2023-02-23T12:45:17.521Z,53.12
2023-02-23T12:48:33.613Z,53.96
2023-02-23T12:51:41.316Z,53.79
2023-02-23T12:54:49.253Z,53.72
2023-02-23T12:58:02.030Z,54.32
2023-02-23T13:01:07.193Z,54.00
2023-02-23T13:04:34.690Z,54.34
2023-02-23T13:08:13.692Z,54.03
2023-02-23T13:11:33.319Z,53.83
2023-02-23T13:14:47.974Z,53.80
2023-02-23T13:18:04.918Z,52.42
2023-02-23T13:21:42.584Z,53.15
2023-02-23T13:24:49.627Z,52.53
2023-02-23T13:27:55.480Z,52.52
2023-02-23T13:30:58.207Z,52.60
2023-02-23T13:34:04.724Z,52.48
2023-02-23T13:37:08.658Z,53.41
2023-02-23T13:40:19.541Z,53.48
2023-02-23T13:43:24.243Z,53.69
2023-02-23T13:46:47.823Z,53.81
2023-02-23T13:50:22.805Z,53.72
2023-02-23T13:54:00.119Z,53.73
2023-02-23T13:57:08.812Z,53.55
2023-02-23T14:00:30.958Z,53.49
2023-02-23T14:03:45.420Z,52.65
2023-02-23T14:07:16.937Z,52.58
2023-02-23T14:10:23.917Z,52.22
2023-02-23T14:13:29.013Z,52.50
2023-02-23T14:16:31.634Z,52.11
2023-02-23T14:19:45.314Z,52.37
2023-02-23T14:23:16.006Z,52.73
2023-02-23T14:26:42.227Z,53.22
2023-02-23T14:30:10.407Z,53.22
2023-02-23T14:33:36.636Z,53.41
2023-02-23T14:36:44.443Z,53.21
2023-02-23T14:39:49.990Z,53.48
2023-02-23T14:42:57.711Z,53.27
2023-02-23T14:46:06.384Z,52.95
2023-02-23T14:49:12.700Z,52.39
2023-02-23T14:52:22.317Z,52.11
2023-02-23T14:55:29.329Z,52.04
2023-02-23T14:58:35.359Z,52.41
2023-02-23T15:01:39.685Z,60.68
2023-02-23T15:04:42.402Z,61.79
2023-02-23T15:07:45.851Z,62.09
2023-02-23T15:10:51.128Z,62.43
2023-02-23T15:13:55.072Z,62.31
2023-02-23T15:16:57.307Z,62.53
2023-02-23T15:20:15.763Z,62.31
2023-02-23T15:23:19.618Z,62.07
2023-02-23T15:26:35.723Z,62.34
2023-02-23T15:29:41.606Z,62.54
2023-02-23T15:32:43.787Z,62.25
2023-02-23T15:35:54.495Z,62.45
2023-02-23T15:38:58.835Z,62.23
2023-02-23T15:42:02.555Z,62.54
2023-02-23T15:45:20.134Z,62.83
2023-02-23T15:48:36.513Z,62.46
2023-02-23T15:51:49.009Z,62.30
2023-02-23T15:55:06.651Z,62.41
2023-02-23T15:58:31.539Z,63.03
2023-02-23T16:01:34.740Z,62.38
2023-02-23T16:04:54.117Z,62.81
2023-02-23T16:08:05.605Z,61.86
2023-02-23T16:11:15.293Z,62.24
2023-02-23T16:14:20.200Z,61.62
2023-02-23T16:17:27.549Z,61.29
2023-02-23T16:20:35.610Z,60.15
2023-02-23T16:23:47.907Z,61.86
2023-02-23T16:26:58.214Z,62.19
2023-02-23T16:30:34.525Z,60.31
2023-02-23T16:33:55.019Z,59.24
2023-02-23T16:37:03.626Z,56.91
2023-02-23T16:40:05.702Z,54.96
2023-02-23T16:43:10.445Z,52.67
2023-02-23T16:46:26.226Z,54.01
2023-02-23T16:49:35.887Z,53.50
2023-02-23T16:52:47.580Z,54.07
2023-02-23T16:56:02.772Z,54.41
2023-02-23T16:59:08.044Z,55.34
2023-02-23T17:02:13.912Z,55.58
2023-02-23T17:05:19.003Z,55.25
2023-02-23T17:08:36.738Z,54.87
2023-02-23T17:11:49.917Z,56.22
2023-02-23T17:14:52.794Z,55.56
2023-02-23T17:18:04.699Z,55.80
2023-02-23T17:21:23.068Z,55.24
2023-02-23T17:24:26.856Z,55.27
2023-02-23T17:27:28.860Z,56.33
2023-02-23T17:30:32.022Z,55.40
2023-02-23T17:33:36.589Z,55.92
2023-02-23T17:36:38.857Z,56.44
2023-02-23T17:39:42.228Z,56.60
2023-02-23T17:42:45.151Z,56.07
2023-02-23T17:45:48.233Z,55.01
2023-02-23T17:48:55.214Z,54.80
2023-02-23T17:51:58.335Z,55.14
2023-02-23T17:55:02.822Z,53.82
2023-02-23T17:58:04.900Z,54.20
2023-02-23T18:01:07.708Z,54.51
2023-02-23T18:04:09.880Z,53.87
2023-02-23T18:07:13.023Z,54.12
2023-02-23T18:10:17.308Z,54.07
2023-02-23T18:13:20.173Z,53.70
2023-02-23T18:16:25.373Z,54.34
2023-02-23T18:19:29.123Z,53.46
2023-02-23T18:22:37.037Z,52.71
2023-02-23T18:26:04.370Z,53.14
2023-02-23T18:29:20.190Z,52.58
2023-02-23T18:32:24.922Z,53.20
2023-02-23T18:35:28.194Z,54.65
2023-02-23T18:38:30.157Z,55.76
2023-02-23T18:41:44.820Z,56.31
2023-02-23T18:44:46.947Z,56.42
2023-02-23T18:47:51.752Z,55.32
2023-02-23T18:50:59.427Z,55.46
2023-02-23T18:54:15.814Z,55.77
2023-02-23T18:58:46.111Z,55.26
2023-02-23T19:02:00.228Z,55.71
2023-02-23T19:05:06.791Z,56.05
2023-02-23T19:08:13.943Z,55.52
2023-02-23T19:11:16.005Z,55.16
2023-02-23T19:14:40.970Z,55.91
2023-02-23T19:17:46.493Z,56.00
2023-02-23T19:20:52.461Z,55.11
2023-02-23T19:25:22.691Z,56.05
2023-02-23T19:29:07.129Z,56.15
2023-02-23T19:32:23.387Z,55.43
2023-02-23T19:35:34.648Z,56.18
2023-02-23T19:39:11.153Z,55.97
2023-02-23T19:42:43.882Z,55.54
2023-02-23T19:45:49.816Z,56.72
2023-02-23T19:49:10.338Z,59.60
2023-02-23T19:52:12.442Z,64.38
2023-02-23T19:55:16.548Z,70.52
2023-02-23T19:58:18.687Z,70.39
2023-02-23T20:01:23.611Z,68.39
2023-02-23T20:04:29.724Z,84.47
2023-02-23T20:07:34.468Z,81.51
2023-02-23T20:10:39.087Z,61.75
2023-02-23T20:13:41.641Z,67.67
2023-02-23T20:16:43.990Z,64.03
2023-02-23T20:19:46.074Z,55.35
2023-02-23T20:22:52.985Z,49.82
2023-02-23T20:25:58.194Z,43.64
2023-02-23T20:29:01.489Z,41.14
2023-02-23T20:32:04.766Z,40.61
2023-02-23T20:35:08.960Z,40.38
2023-02-23T20:38:11.689Z,40.55
2023-02-23T20:41:13.708Z,50.74
2023-02-23T20:44:16.278Z,60.25
2023-02-23T20:47:19.304Z,69.99
2023-02-23T20:50:25.658Z,74.76
2023-02-23T20:53:28.878Z,80.21
2023-02-23T20:56:32.283Z,84.74
2023-02-23T20:59:40.600Z,88.37
2023-02-23T21:02:42.751Z,90.09
2023-02-23T21:05:44.837Z,91.40
2023-02-23T21:08:51.284Z,93.21
2023-02-23T21:11:53.481Z,93.20
2023-02-23T21:14:56.591Z,93.76
2023-02-23T21:17:59.036Z,93.47
2023-02-23T21:21:10.159Z,93.23
2023-02-23T21:24:15.054Z,93.47
2023-02-23T21:27:19.896Z,100.00
2023-02-23T21:30:24.197Z,100.00
2023-02-23T21:33:26.323Z,100.00
2023-02-23T21:36:28.309Z,99.63
2023-02-23T21:39:31.049Z,98.61
2023-02-23T21:42:33.200Z,96.92
2023-02-23T21:45:35.676Z,94.33
2023-02-23T21:48:37.771Z,93.95
2023-02-23T21:51:39.851Z,92.05
2023-02-23T21:54:46.880Z,86.83
2023-02-23T21:57:48.978Z,82.96
2023-02-23T22:00:52.711Z,71.65
2023-02-23T22:03:56.858Z,67.83
2023-02-23T22:06:59.468Z,63.28
2023-02-23T22:10:01.651Z,62.69
2023-02-23T22:13:03.704Z,63.39
2023-02-23T22:16:07.102Z,64.13
2023-02-23T22:19:12.348Z,65.61
2023-02-23T22:22:15.401Z,70.15
2023-02-23T22:25:20.543Z,74.19
2023-02-23T22:28:24.014Z,78.12
2023-02-23T22:31:26.142Z,80.03
2023-02-23T22:34:28.613Z,83.10
2023-02-23T22:37:31.725Z,83.84
2023-02-23T22:40:42.363Z,83.32
2023-02-23T22:43:47.111Z,81.41
2023-02-23T22:46:49.545Z,79.68
2023-02-23T22:49:51.687Z,78.92
2023-02-23T22:52:53.819Z,79.49
2023-02-23T22:55:56.806Z,77.01
2023-02-23T22:59:06.241Z,75.03
2023-02-23T23:02:08.323Z,73.36
2023-02-23T23:05:12.840Z,69.96
2023-02-23T23:08:15.576Z,69.41
2023-02-23T23:11:21.552Z,68.07
2023-02-23T23:14:24.128Z,68.47
2023-02-23T23:17:26.156Z,67.58
2023-02-23T23:20:29.254Z,66.99
2023-02-23T23:23:34.860Z,67.38
2023-02-23T23:26:39.904Z,67.26
2023-02-23T23:29:46.782Z,66.26
2023-02-23T23:32:49.793Z,65.33
2023-02-23T23:35:54.305Z,66.20
2023-02-23T23:38:57.498Z,65.32
2023-02-23T23:42:01.996Z,65.62
2023-02-23T23:45:07.084Z,66.45
2023-02-23T23:48:10.366Z,65.61
2023-02-23T23:51:12.901Z,65.32
2023-02-23T23:54:19.188Z,65.39
2023-02-23T23:57:24.287Z,66.08
